createdAt,value
2018-02-12T00:02:13.903Z,2.65
2018-02-12T00:04:43.901Z,2.69
2018-02-12T00:07:13.119Z,2.70
2018-02-12T00:09:43.089Z,2.70
2018-02-12T00:12:12.299Z,2.72
2018-02-12T00:14:42.335Z,2.74
2018-02-12T00:17:11.720Z,2.76
2018-02-12T00:19:40.938Z,2.73
2018-02-12T00:22:14.846Z,2.72
2018-02-12T00:24:44.843Z,2.70
2018-02-12T00:27:14.096Z,2.67
2018-02-12T00:29:43.311Z,2.63
2018-02-12T00:32:12.555Z,2.63
2018-02-12T00:34:42.574Z,2.66
2018-02-12T00:37:12.573Z,2.66
2018-02-12T00:39:41.802Z,2.75
2018-02-12T00:42:11.777Z,2.77
2018-02-12T00:44:40.991Z,2.76
2018-02-12T00:47:10.245Z,2.66
2018-02-12T00:49:39.451Z,2.74
2018-02-12T00:52:08.675Z,2.78
2018-02-12T00:54:37.887Z,2.83
2018-02-12T00:57:07.100Z,2.80
2018-02-12T00:59:37.102Z,2.80
2018-02-12T01:02:07.062Z,2.83
2018-02-12T01:04:36.274Z,2.82
2018-02-12T01:07:05.633Z,2.84
2018-02-12T01:09:34.870Z,2.85
2018-02-12T01:12:04.076Z,2.83
2018-02-12T01:14:33.300Z,2.81
2018-02-12T01:17:03.999Z,2.84
2018-02-12T01:19:33.286Z,2.88
2018-02-12T01:22:02.670Z,2.86
2018-02-12T01:24:31.883Z,2.77
2018-02-12T01:27:01.116Z,2.71
2018-02-12T01:29:30.399Z,2.65
2018-02-12T01:31:59.679Z,2.49
2018-02-12T01:34:29.085Z,2.37
2018-02-12T01:36:58.346Z,2.32
2018-02-12T01:39:28.338Z,2.26
2018-02-12T01:41:57.583Z,2.24
2018-02-12T01:44:26.807Z,2.28
2018-02-12T01:46:56.127Z,2.30
2018-02-12T01:49:25.370Z,2.26
2018-02-12T01:51:54.617Z,2.29
2018-02-12T01:54:23.821Z,2.33
2018-02-12T01:56:53.078Z,2.26
2018-02-12T01:59:22.306Z,2.27
2018-02-12T02:01:51.522Z,2.22
2018-02-12T02:04:20.723Z,2.23
2018-02-12T02:06:50.745Z,2.25
2018-02-12T02:09:19.961Z,2.24
2018-02-12T02:11:49.938Z,2.25
2018-02-12T02:14:19.196Z,2.24
2018-02-12T02:16:48.452Z,2.22
2018-02-12T02:19:18.591Z,2.18
2018-02-12T02:21:48.573Z,2.23
2018-02-12T02:24:17.804Z,2.28
2018-02-12T02:26:47.803Z,2.32
2018-02-12T02:29:17.043Z,2.30
2018-02-12T02:31:46.258Z,2.35
2018-02-12T02:34:16.250Z,2.36
2018-02-12T02:36:46.221Z,2.34
2018-02-12T02:39:15.451Z,2.42
2018-02-12T02:41:45.457Z,2.38
2018-02-12T02:44:15.443Z,2.38
2018-02-12T02:46:44.703Z,2.44
2018-02-12T02:49:13.924Z,2.42
2018-02-12T02:51:43.263Z,2.44
2018-02-12T02:54:13.238Z,2.43
2018-02-12T02:56:42.479Z,2.43
2018-02-12T02:59:12.466Z,2.46
2018-02-12T03:01:42.453Z,2.45
2018-02-12T03:04:11.727Z,2.41
2018-02-12T03:06:41.726Z,2.46
2018-02-12T03:09:10.930Z,2.50
2018-02-12T03:11:41.032Z,2.50
2018-02-12T03:14:11.058Z,2.53
2018-02-12T03:16:41.059Z,2.52
2018-02-12T03:19:11.042Z,2.53
2018-02-12T03:21:40.529Z,2.50
2018-02-12T03:24:09.737Z,2.55
2018-02-12T03:26:38.981Z,2.54
2018-02-12T03:29:08.943Z,2.52
2018-02-12T03:31:38.163Z,2.48
2018-02-12T03:34:07.407Z,2.56
2018-02-12T03:36:37.403Z,2.57
2018-02-12T03:39:06.644Z,2.54
2018-02-12T03:41:35.892Z,2.55
2018-02-12T03:44:05.104Z,2.49
2018-02-12T03:46:35.097Z,2.46
2018-02-12T03:49:04.330Z,2.49
2018-02-12T03:51:34.324Z,2.50
2018-02-12T03:54:03.742Z,2.56
2018-02-12T03:56:33.713Z,2.53
2018-02-12T03:59:02.988Z,2.57
2018-02-12T04:01:32.262Z,2.57
2018-02-12T04:04:01.536Z,2.58
2018-02-12T04:06:30.767Z,2.56
2018-02-12T04:09:00.176Z,2.58
2018-02-12T04:11:31.196Z,2.61
2018-02-12T04:14:00.441Z,2.58
2018-02-12T04:16:29.671Z,2.62
2018-02-12T04:18:58.890Z,2.59
2018-02-12T04:21:28.257Z,2.53
2018-02-12T04:23:57.483Z,2.52
2018-02-12T04:26:27.463Z,2.52
2018-02-12T04:28:56.744Z,2.57
2018-02-12T04:31:26.204Z,2.60
2018-02-12T04:33:55.436Z,2.59
2018-02-12T04:36:26.462Z,2.57
2018-02-12T04:38:59.402Z,2.57
2018-02-12T04:41:28.641Z,2.58
2018-02-12T04:43:57.906Z,2.58
2018-02-12T04:46:27.840Z,2.59
2018-02-12T04:48:57.860Z,2.56
2018-02-12T04:51:27.915Z,2.54
2018-02-12T04:53:57.122Z,2.55
2018-02-12T04:56:26.330Z,2.52
2018-02-12T04:58:55.551Z,2.52
2018-02-12T05:01:25.549Z,2.50
2018-02-12T05:03:54.856Z,2.55
2018-02-12T05:06:24.086Z,2.56
2018-02-12T05:08:54.067Z,2.53
2018-02-12T05:11:24.798Z,2.51
2018-02-12T05:13:54.027Z,2.49
2018-02-12T05:16:24.079Z,2.49
2018-02-12T05:18:53.331Z,2.52
2018-02-12T05:21:22.802Z,2.50
2018-02-12T05:23:52.071Z,2.50
2018-02-12T05:26:21.338Z,2.52
2018-02-12T05:28:50.610Z,2.54
2018-02-12T05:31:19.854Z,2.57
2018-02-12T05:33:49.856Z,2.58
2018-02-12T05:36:19.159Z,2.60
2018-02-12T05:38:49.162Z,2.60
2018-02-12T05:41:19.241Z,2.62
2018-02-12T05:43:48.533Z,2.68
2018-02-12T05:46:17.755Z,2.67
2018-02-12T05:48:46.973Z,2.63
2018-02-12T05:51:16.425Z,2.56
2018-02-12T05:53:45.646Z,2.58
2018-02-12T05:56:14.876Z,2.53
2018-02-12T05:58:44.189Z,2.50
2018-02-12T06:01:13.437Z,2.50
2018-02-12T06:03:42.649Z,2.51
2018-02-12T06:06:13.383Z,2.50
2018-02-12T06:08:42.670Z,2.47
2018-02-12T06:11:11.876Z,2.42
2018-02-12T06:13:41.312Z,2.46
2018-02-12T06:16:11.300Z,2.45
2018-02-12T06:18:40.625Z,2.46
2018-02-12T06:21:10.687Z,2.46
2018-02-12T06:23:39.916Z,2.38
2018-02-12T06:26:09.171Z,2.41
2018-02-12T06:28:38.631Z,2.42
2018-02-12T06:31:07.890Z,2.40
2018-02-12T06:33:37.152Z,2.40
2018-02-12T06:36:06.395Z,2.41
2018-02-12T06:38:35.651Z,2.44
2018-02-12T06:41:05.622Z,2.42
2018-02-12T06:43:34.920Z,2.47
2018-02-12T06:46:04.131Z,2.49
2018-02-12T06:48:33.325Z,2.47
2018-02-12T06:51:02.584Z,2.45
2018-02-12T06:53:31.795Z,2.50
2018-02-12T06:56:01.749Z,2.46
2018-02-12T06:58:31.038Z,2.44
2018-02-12T07:01:00.271Z,2.49
2018-02-12T07:03:29.483Z,2.53
2018-02-12T07:05:58.851Z,2.51
2018-02-12T07:08:28.066Z,2.53
2018-02-12T07:10:57.363Z,2.52
2018-02-12T07:13:26.570Z,2.49
2018-02-12T07:15:55.919Z,2.53
2018-02-12T07:18:25.134Z,2.55
2018-02-12T07:20:54.391Z,2.51
2018-02-12T07:23:23.629Z,2.45
2018-02-12T07:25:53.587Z,2.49
2018-02-12T07:28:22.802Z,2.47
2018-02-12T07:30:51.994Z,2.49
2018-02-12T07:33:21.206Z,2.53
2018-02-12T07:35:50.421Z,2.53
2018-02-12T07:38:19.641Z,2.55
2018-02-12T07:40:49.640Z,2.56
2018-02-12T07:43:18.919Z,2.56
2018-02-12T07:45:48.530Z,2.64
2018-02-12T07:48:17.960Z,2.65
2018-02-12T07:50:47.118Z,2.68
2018-02-12T07:53:16.414Z,2.67
2018-02-12T07:55:45.993Z,2.70
2018-02-12T07:58:15.344Z,2.78
2018-02-12T08:00:45.591Z,2.80
2018-02-12T08:03:15.690Z,2.83
2018-02-12T08:05:45.010Z,2.80
2018-02-12T08:08:14.354Z,2.81
2018-02-12T08:10:43.636Z,2.82
2018-02-12T08:13:13.604Z,2.79
2018-02-12T08:15:42.957Z,2.81
2018-02-12T08:18:12.170Z,2.80
2018-02-12T08:20:41.445Z,2.71
2018-02-12T08:23:11.438Z,2.59
2018-02-12T08:25:41.448Z,2.47
2018-02-12T08:28:10.886Z,2.37
2018-02-12T08:30:40.088Z,2.36
2018-02-12T08:33:09.357Z,2.39
2018-02-12T08:35:39.350Z,2.43
2018-02-12T08:38:08.719Z,2.32
2018-02-12T08:40:37.900Z,2.26
2018-02-12T08:43:07.216Z,2.31
2018-02-12T08:45:36.410Z,2.40
2018-02-12T08:48:05.752Z,2.47
2018-02-12T08:50:35.704Z,2.46
2018-02-12T08:53:04.944Z,2.24
2018-02-12T08:55:34.180Z,2.17
2018-02-12T08:58:04.250Z,2.09
2018-02-12T09:00:33.638Z,2.02
2018-02-12T09:03:02.932Z,2.00
2018-02-12T09:05:32.121Z,2.09
2018-02-12T09:08:01.416Z,2.12
2018-02-12T09:10:30.661Z,2.20
2018-02-12T09:12:59.881Z,2.20
2018-02-12T09:15:29.086Z,2.23
2018-02-12T09:18:00.070Z,2.24
2018-02-12T09:20:29.317Z,2.27
2018-02-12T09:22:59.283Z,2.34
2018-02-12T09:25:28.543Z,2.46
2018-02-12T09:27:58.558Z,2.50
2018-02-12T09:30:28.532Z,2.51
2018-02-12T09:32:58.515Z,2.54
2018-02-12T09:35:27.764Z,2.53
2018-02-12T09:37:56.987Z,2.53
2018-02-12T09:40:26.214Z,2.55
2018-02-12T09:42:55.447Z,2.62
2018-02-12T09:45:24.729Z,2.64
2018-02-12T09:47:53.967Z,2.70
2018-02-12T09:50:23.988Z,2.71
2018-02-12T09:52:54.011Z,2.80
2018-02-12T09:55:23.988Z,2.84
2018-02-12T09:57:53.415Z,2.87
2018-02-12T10:00:23.407Z,2.93
2018-02-12T10:02:52.629Z,2.89
2018-02-12T10:05:21.848Z,2.95
2018-02-12T10:07:51.076Z,2.95
2018-02-12T10:10:20.301Z,3.07
2018-02-12T10:12:49.545Z,3.12
2018-02-12T10:15:18.755Z,3.13
2018-02-12T10:17:47.978Z,3.10
2018-02-12T10:20:17.211Z,3.11
2018-02-12T10:22:46.397Z,3.17
2018-02-12T10:25:15.593Z,3.25
2018-02-12T10:27:45.588Z,3.30
2018-02-12T10:30:14.827Z,3.32
2018-02-12T10:32:44.001Z,3.43
2018-02-12T10:35:13.204Z,3.42
2018-02-12T10:37:43.187Z,3.44
2018-02-12T10:40:12.642Z,3.46
2018-02-12T10:42:42.634Z,3.42
2018-02-12T10:45:13.478Z,3.42
2018-02-12T10:47:42.706Z,3.45
2018-02-12T10:50:12.685Z,3.49
2018-02-12T10:52:41.918Z,3.52
2018-02-12T10:55:11.534Z,3.62
2018-02-12T10:57:40.806Z,3.70
2018-02-12T11:00:10.032Z,3.72
2018-02-12T11:02:39.328Z,3.74
2018-02-12T11:05:08.531Z,3.81
2018-02-12T11:07:37.766Z,3.84
2018-02-12T11:10:06.993Z,3.94
2018-02-12T11:12:37.010Z,3.94
2018-02-12T11:15:07.065Z,3.85
2018-02-12T11:17:37.019Z,3.85
2018-02-12T11:20:06.343Z,3.90
2018-02-12T11:22:35.694Z,3.96
2018-02-12T11:25:04.963Z,4.02
2018-02-12T11:27:34.278Z,4.14
2018-02-12T11:30:03.524Z,4.20
2018-02-12T11:32:32.761Z,4.23
2018-02-12T11:35:02.739Z,4.27
2018-02-12T11:37:31.986Z,4.38
2018-02-12T11:40:01.394Z,4.40
2018-02-12T11:42:30.618Z,4.36
2018-02-12T11:44:59.830Z,4.32
2018-02-12T11:47:29.877Z,4.30
2018-02-12T11:49:59.870Z,4.33
2018-02-12T11:52:30.567Z,4.45
2018-02-12T11:54:59.826Z,4.54
2018-02-12T11:57:29.830Z,4.64
2018-02-12T11:59:59.101Z,4.74
2018-02-12T12:02:28.386Z,4.84
2018-02-12T12:04:57.645Z,4.91
2018-02-12T12:07:27.614Z,5.08
2018-02-12T12:09:56.844Z,5.32
2018-02-12T12:12:26.040Z,5.48
2018-02-12T12:14:56.011Z,5.57
2018-02-12T12:17:25.486Z,5.70
2018-02-12T12:19:54.698Z,5.87
2018-02-12T12:22:23.973Z,6.00
2018-02-12T12:24:53.439Z,5.91
2018-02-12T12:27:22.626Z,5.99
2018-02-12T12:29:51.882Z,6.10
2018-02-12T12:32:21.097Z,6.20
2018-02-12T12:34:50.987Z,6.10
2018-02-12T12:37:20.972Z,5.99
2018-02-12T12:39:50.316Z,5.94
2018-02-12T12:42:19.594Z,5.93
2018-02-12T12:44:48.774Z,5.88
2018-02-12T12:47:17.932Z,5.82
2018-02-12T12:49:47.182Z,5.69
2018-02-12T12:52:17.314Z,5.60
2018-02-12T12:54:46.543Z,5.58
2018-02-12T12:57:15.749Z,5.50
2018-02-12T12:59:44.974Z,5.50
2018-02-12T13:02:14.951Z,5.45
2018-02-12T13:04:44.138Z,5.35
2018-02-12T13:07:13.345Z,5.26
2018-02-12T13:09:42.583Z,5.18
2018-02-12T13:12:11.820Z,5.10
2018-02-12T13:14:41.043Z,5.09
2018-02-12T13:17:10.240Z,5.09
2018-02-12T13:19:39.499Z,5.15
2018-02-12T13:22:08.721Z,5.21
2018-02-12T13:24:38.077Z,5.20
2018-02-12T13:27:07.423Z,5.18
2018-02-12T13:29:36.619Z,5.18
2018-02-12T13:32:05.862Z,5.15
2018-02-12T13:34:35.106Z,5.10
2018-02-12T13:37:04.489Z,5.13
2018-02-12T13:39:34.482Z,5.12
2018-02-12T13:42:04.505Z,5.09
2018-02-12T13:44:33.718Z,5.14
2018-02-12T13:47:03.689Z,5.25
2018-02-12T13:49:32.958Z,5.31
2018-02-12T13:52:02.189Z,5.29
2018-02-12T13:54:31.391Z,5.30
2018-02-12T13:57:00.996Z,5.30
2018-02-12T13:59:30.255Z,5.27
2018-02-12T14:02:00.262Z,5.23
2018-02-12T14:04:29.622Z,5.25
2018-02-12T14:06:59.841Z,5.19
2018-02-12T14:09:29.058Z,5.17
2018-02-12T14:11:59.160Z,5.17
2018-02-12T14:14:29.878Z,5.24
2018-02-12T14:16:59.079Z,5.18
2018-02-12T14:19:28.303Z,5.17
2018-02-12T14:21:58.292Z,5.17
2018-02-12T14:24:27.533Z,5.18
2018-02-12T14:26:56.734Z,5.18
2018-02-12T14:29:25.931Z,5.18
2018-02-12T14:31:55.937Z,5.21
2018-02-12T14:34:25.158Z,5.26
2018-02-12T14:36:54.363Z,5.23
2018-02-12T14:39:23.629Z,5.26
2018-02-12T14:41:53.828Z,5.27
2018-02-12T14:44:23.166Z,5.27
2018-02-12T14:46:52.410Z,5.29
2018-02-12T14:49:21.624Z,5.28
2018-02-12T14:51:52.519Z,5.27
2018-02-12T14:54:21.723Z,5.22
2018-02-12T14:56:51.110Z,5.25
2018-02-12T14:59:20.285Z,5.24
2018-02-12T15:01:49.545Z,5.27
2018-02-12T15:04:18.759Z,5.31
2018-02-12T15:06:48.000Z,5.34
2018-02-12T15:09:17.282Z,5.33
2018-02-12T15:11:46.535Z,5.29
2018-02-12T15:14:15.750Z,5.34
2018-02-12T15:16:44.973Z,5.35
2018-02-12T15:19:15.017Z,5.31
2018-02-12T15:21:44.237Z,5.26
2018-02-12T15:24:13.487Z,5.19
2018-02-12T15:26:43.701Z,5.11
2018-02-12T15:29:13.713Z,5.05
2018-02-12T15:31:43.659Z,5.06
2018-02-12T15:34:13.085Z,5.10
2018-02-12T15:36:42.358Z,5.12
2018-02-12T15:39:11.600Z,5.14
2018-02-12T15:41:40.792Z,5.16
2018-02-12T15:44:10.015Z,5.08
2018-02-12T15:46:39.266Z,5.04
2018-02-12T15:49:08.517Z,5.02
2018-02-12T15:51:37.706Z,5.02
2018-02-12T15:54:07.913Z,4.99
2018-02-12T15:56:37.179Z,4.98
2018-02-12T15:59:06.402Z,4.93
2018-02-12T16:01:35.684Z,4.90
2018-02-12T16:04:05.063Z,4.91
2018-02-12T16:06:34.330Z,4.88
2018-02-12T16:09:04.335Z,4.79
2018-02-12T16:11:34.404Z,4.80
2018-02-12T16:14:03.644Z,4.78
2018-02-12T16:16:32.888Z,4.81
2018-02-12T16:19:02.109Z,4.79
2018-02-12T16:21:31.362Z,4.74
2018-02-12T16:24:01.661Z,4.69
2018-02-12T16:26:30.918Z,4.69
2018-02-12T16:29:00.134Z,4.73
2018-02-12T16:31:29.416Z,4.74
2018-02-12T16:33:58.626Z,4.73
2018-02-12T16:36:27.872Z,4.72
2018-02-12T16:38:57.115Z,4.67
2018-02-12T16:41:26.341Z,4.61
2018-02-12T16:43:55.675Z,4.61
2018-02-12T16:46:25.661Z,4.57
2018-02-12T16:48:55.270Z,4.50
2018-02-12T16:51:24.524Z,4.46
2018-02-12T16:53:53.788Z,4.38
2018-02-12T16:56:23.823Z,4.31
2018-02-12T16:58:53.176Z,4.24
2018-02-12T17:01:22.481Z,4.20
2018-02-12T17:03:51.902Z,4.11
2018-02-12T17:06:21.878Z,4.13
2018-02-12T17:08:51.106Z,4.12
2018-02-12T17:11:21.172Z,4.15
2018-02-12T17:13:50.388Z,4.11
2018-02-12T17:16:19.612Z,4.02
2018-02-12T17:18:49.584Z,3.97
2018-02-12T17:21:18.830Z,3.91
2018-02-12T17:23:48.882Z,3.93
2018-02-12T17:26:18.133Z,3.89
2018-02-12T17:28:47.330Z,3.91
2018-02-12T17:31:16.554Z,3.84
2018-02-12T17:33:46.555Z,3.82
2018-02-12T17:36:15.815Z,3.75
2018-02-12T17:38:45.052Z,3.71
2018-02-12T17:41:14.304Z,3.72
2018-02-12T17:43:43.548Z,3.63
2018-02-12T17:46:12.837Z,3.65
2018-02-12T17:48:42.080Z,3.62
2018-02-12T17:51:11.283Z,3.56
2018-02-12T17:53:40.530Z,3.56
2018-02-12T17:56:10.563Z,3.52
2018-02-12T17:58:40.677Z,3.51
2018-02-12T18:01:09.899Z,3.48
2018-02-12T18:03:40.030Z,3.48
2018-02-12T18:06:09.256Z,3.44
2018-02-12T18:08:38.562Z,3.45
2018-02-12T18:11:07.815Z,3.42
2018-02-12T18:13:37.837Z,3.41
2018-02-12T18:16:07.078Z,3.42
2018-02-12T18:18:36.367Z,3.48
2018-02-12T18:21:05.605Z,3.49
2018-02-12T18:23:34.880Z,3.52
2018-02-12T18:26:04.159Z,3.54
2018-02-12T18:28:33.380Z,3.50
2018-02-12T18:31:04.253Z,3.51
2018-02-12T18:33:33.502Z,3.53
2018-02-12T18:36:02.793Z,3.46
2018-02-12T18:38:32.003Z,3.42
2018-02-12T18:41:01.258Z,3.35
2018-02-12T18:43:31.257Z,3.32
2018-02-12T18:46:01.351Z,3.29
2018-02-12T18:48:30.593Z,3.30
2018-02-12T18:51:00.531Z,3.23
2018-02-12T18:53:29.777Z,3.26
2018-02-12T18:55:59.755Z,3.22
2018-02-12T18:58:29.010Z,3.18
2018-02-12T19:00:59.030Z,3.13
2018-02-12T19:03:28.253Z,3.11
2018-02-12T19:05:57.514Z,3.07
2018-02-12T19:08:26.784Z,3.06
2018-02-12T19:10:56.035Z,3.03
2018-02-12T19:13:25.280Z,2.99
2018-02-12T19:15:54.523Z,3.03
2018-02-12T19:18:24.527Z,2.92
2018-02-12T19:20:54.600Z,2.89
2018-02-12T19:23:23.859Z,2.88
2018-02-12T19:25:53.058Z,2.90
2018-02-12T19:28:22.327Z,2.91
2018-02-12T19:30:52.344Z,2.92
2018-02-12T19:33:23.264Z,2.91
2018-02-12T19:35:52.496Z,2.97
2018-02-12T19:38:24.797Z,2.95
2018-02-12T19:40:54.047Z,2.86
2018-02-12T19:43:24.091Z,2.81
2018-02-12T19:45:54.076Z,2.80
2018-02-12T19:48:23.352Z,2.72
2018-02-12T19:50:52.643Z,2.69
2018-02-12T19:53:21.879Z,2.71
2018-02-12T19:55:51.890Z,2.71
2018-02-12T19:58:21.865Z,2.70
2018-02-12T20:00:51.142Z,2.69
2018-02-12T20:03:20.356Z,2.67
2018-02-12T20:05:49.624Z,2.72
2018-02-12T20:08:18.905Z,2.64
2018-02-12T20:10:48.184Z,2.64
2018-02-12T20:13:18.965Z,2.66
2018-02-12T20:15:48.209Z,2.63
2018-02-12T20:18:18.309Z,2.61
2018-02-12T20:20:47.547Z,2.62
2018-02-12T20:23:17.699Z,2.62
2018-02-12T20:25:46.967Z,2.64
2018-02-12T20:28:17.013Z,2.62
2018-02-12T20:30:46.271Z,2.63
2018-02-12T20:33:15.527Z,2.63
2018-02-12T20:35:44.788Z,2.55
2018-02-12T20:38:14.806Z,2.56
2018-02-12T20:40:44.885Z,2.56
2018-02-12T20:43:14.277Z,2.53
2018-02-12T20:45:43.539Z,2.57
2018-02-12T20:48:12.761Z,2.53
2018-02-12T20:50:42.015Z,2.53
2018-02-12T20:53:12.020Z,2.52
2018-02-12T20:55:42.043Z,2.42
2018-02-12T20:58:12.024Z,2.43
2018-02-12T21:00:41.256Z,2.43
2018-02-12T21:03:10.484Z,2.46
2018-02-12T21:05:39.749Z,2.40
2018-02-12T21:08:09.092Z,2.37
2018-02-12T21:10:38.489Z,2.41
2018-02-12T21:13:07.749Z,2.40
2018-02-12T21:15:36.975Z,2.38
2018-02-12T21:18:06.964Z,2.38
2018-02-12T21:20:36.979Z,2.37
2018-02-12T21:23:06.197Z,2.37
2018-02-12T21:25:36.183Z,2.36
2018-02-12T21:28:06.221Z,2.32
2018-02-12T21:30:35.551Z,2.30
2018-02-12T21:33:04.793Z,2.33
2018-02-12T21:35:34.039Z,2.34
2018-02-12T21:38:03.289Z,2.35
2018-02-12T21:40:33.460Z,2.36
2018-02-12T21:43:03.419Z,2.28
2018-02-12T21:45:32.693Z,2.29
2018-02-12T21:48:02.038Z,2.27
2018-02-12T21:50:31.253Z,2.25
2018-02-12T21:53:01.246Z,2.25
2018-02-12T21:55:30.507Z,2.21
2018-02-12T21:57:59.726Z,2.22
2018-02-12T22:00:28.961Z,2.19
2018-02-12T22:02:59.134Z,2.23
2018-02-12T22:05:28.396Z,2.20
2018-02-12T22:07:57.642Z,2.21
2018-02-12T22:10:26.882Z,2.18
2018-02-12T22:12:56.111Z,2.15
2018-02-12T22:15:25.472Z,2.14
2018-02-12T22:17:54.696Z,2.12
2018-02-12T22:20:23.925Z,2.06
2018-02-12T22:22:53.140Z,2.05
2018-02-12T22:25:22.365Z,2.03
2018-02-12T22:27:52.415Z,1.98
2018-02-12T22:30:21.631Z,1.94
2018-02-12T22:32:50.856Z,1.90
2018-02-12T22:35:20.098Z,1.84
2018-02-12T22:37:49.590Z,1.85
2018-02-12T22:40:19.592Z,1.83
2018-02-12T22:42:49.617Z,1.81
2018-02-12T22:45:19.618Z,1.79
2018-02-12T22:47:49.645Z,1.78
2018-02-12T22:50:19.608Z,1.78
2018-02-12T22:52:48.826Z,1.74
2018-02-12T22:55:18.104Z,1.69
2018-02-12T22:57:47.355Z,1.70
2018-02-12T23:00:16.823Z,1.67
2018-02-12T23:02:46.402Z,1.63
2018-02-12T23:05:16.426Z,1.62
2018-02-12T23:07:45.657Z,1.66
2018-02-12T23:10:14.884Z,1.64
2018-02-12T23:12:45.010Z,1.61
2018-02-12T23:15:20.581Z,1.61
2018-02-12T23:17:49.866Z,1.60
2018-02-12T23:20:19.086Z,1.52
2018-02-12T23:22:48.284Z,1.56
2018-02-12T23:25:17.576Z,1.51
2018-02-12T23:27:46.792Z,1.52
2018-02-12T23:30:16.953Z,1.51
2018-02-12T23:32:46.151Z,1.53
2018-02-12T23:35:16.139Z,1.57
2018-02-12T23:37:46.135Z,1.48
2018-02-12T23:40:15.450Z,1.48
2018-02-12T23:42:44.757Z,1.52
2018-02-12T23:45:14.017Z,1.49
2018-02-12T23:47:43.258Z,1.49
2018-02-12T23:50:14.197Z,1.42
2018-02-12T23:52:43.405Z,1.45
2018-02-12T23:55:13.406Z,1.43
2018-02-12T23:57:44.150Z,1.39
